Aviation Digital Data Service (ADDS)

Output produced by METARs form (1334 UTC 25 February 2017)
found at http://www.aviationweather.gov/adds/metars/
 
METAR text: RODN 251329Z AUTO 05009KT 7SM R05/5500FT -RA SCT014 BKN022 OVC046 14/14 A3010 RMK AO2 VIS 2 1/2 RWY23 RAE04RAB10E25RAB29
Conditions at: RODN (KADENA (USAFB-NA, JP) observed 1329 UTC 25 February 2017
Temperature: 14.0°C (57°F)
Dewpoint: 14.0°C (57°F) [RH = 100%]
Pressure (altimeter): 30.10 inches Hg (1019.4 mb)
Winds: from the NE (50 degrees) at 10 MPH (9 knots; 4.7 m/s)
Visibility: 7 miles (11 km)
Ceiling: 2200 feet AGL
Clouds: scattered clouds at 1400 feet AGL
broken clouds at 2200 feet AGL
overcast cloud deck at 4600 feet AGL
Weather: -RA  (light rain)

METAR text: ROTM 251258Z 05008KT 8000 -SHRA BR SCT010 OVC025 14/14 A3011 RMK SLP184 P0002 T01390139
Conditions at: ROTM (FUTENMA(US-MCAS), JP) observed 1258 UTC 25 February 2017
Temperature: 13.9°C (57°F)
Dewpoint: 13.9°C (57°F) [RH = 100%]
Pressure (altimeter): 30.11 inches Hg (1019.7 mb)
[Sea-level pressure: 1018.4 mb]
Winds: from the NE (50 degrees) at 9 MPH (8 knots; 4.2 m/s)
Visibility: 5 miles (8 km)
Ceiling: 2500 feet AGL
Clouds: scattered clouds at 1000 feet AGL
overcast cloud deck at 2500 feet AGL
Weather: -SHRA BR  (light rain showers, mist)

METAR text: ROAH 251300Z 04008KT 360V070 9999 -SHRA FEW008 BKN030 BKN040 15/13 Q1018 RMK 2ST008 5CU030 6SC040 A3009
Conditions at: ROAH (NAHA (CIV/JASDF), JP) observed 1300 UTC 25 February 2017
Temperature: 15.0°C (59°F)
Dewpoint: 13.0°C (55°F) [RH = 88%]
Pressure (altimeter): 30.06 inches Hg (1018.0 mb)
Winds: from the NE (40 degrees) at 9 MPH (8 knots; 4.2 m/s)
Visibility: 6 or more miles (10+ km)
Ceiling: 3000 feet AGL
Clouds: few clouds at 800 feet AGL
broken clouds at 3000 feet AGL
broken clouds at 4000 feet AGL
Weather: -SHRA  (light rain showers)